Time;durP1;ratioP1;P1;durP2;ratioP2;P2;SDS_P1;SDS_P2;PMS_P1;PMS_P2;Temp;Humidity;BMP_temperature;BMP_pressure;BME280_temperature;BME280_humidity;BME280_pressure;Samples;Min_cycle;Max_cycle;Signal;HPM_P1;HPM_P2
2022/04/05 00:02:23;;;;;;;7.38;2.60;;;;;;;20.40;43.43;101065.09;5051581;28;20503;-76
2022/04/05 00:04:48;;;;;;;12.95;3.40;;;;;;;20.08;44.50;101065.34;5051618;28;20198;-78
2022/04/05 00:07:14;;;;;;;10.15;3.38;;;;;;;20.23;44.02;101060.84;5051633;28;20036;-77
2022/04/05 00:09:41;;;;;;;12.07;3.85;;;;;;;20.19;44.12;101065.56;5051606;28;20108;-77
2022/04/05 00:12:06;;;;;;;9.57;3.53;;;;;;;20.52;43.25;101066.91;5050204;28;20025;-80
2022/04/05 00:14:32;;;;;;;10.70;3.10;;;;;;;20.38;43.55;101064.66;5051326;28;20056;-84
2022/04/05 00:16:58;;;;;;;9.30;2.97;;;;;;;20.32;43.60;101053.06;5051355;28;20159;-77
2022/04/05 00:19:25;;;;;;;10.25;3.20;;;;;;;20.06;44.26;101064.13;5050134;28;20025;-76
2022/04/05 00:21:51;;;;;;;10.10;4.00;;;;;;;20.15;43.91;101054.38;5050186;28;20514;-77
2022/04/05 00:24:17;;;;;;;14.93;4.03;;;;;;;20.27;43.76;101052.59;5051337;28;20383;-77
2022/04/05 00:26:43;;;;;;;14.93;3.70;;;;;;;19.99;44.24;101056.47;5051315;27;20033;-77
2022/04/05 00:29:08;;;;;;;20.48;4.78;;;;;;;20.31;43.49;101045.13;5051293;28;20117;-77
2022/04/05 00:31:34;;;;;;;16.52;4.60;;;;;;;20.22;43.67;101042.59;5051148;28;20413;-78
2022/04/05 00:34:00;;;;;;;10.55;3.40;;;;;;;20.06;43.90;101033.63;5049944;28;20522;-77
2022/04/05 00:36:25;;;;;;;16.95;5.45;;;;;;;20.12;43.83;101037.69;5050820;28;20488;-77
2022/04/05 00:38:51;;;;;;;15.57;3.97;;;;;;;19.93;44.30;101036.56;5051061;28;20542;-83
2022/04/05 00:41:17;;;;;;;16.70;5.45;;;;;;;19.87;44.33;101032.50;5051109;28;20032;-77
2022/04/05 00:43:43;;;;;;;14.27;4.93;;;;;;;19.86;44.36;101021.78;5050671;28;20052;-77
2022/04/05 00:46:08;;;;;;;18.67;5.00;;;;;;;20.11;43.73;101023.03;5051141;28;20402;-77
2022/04/05 00:48:44;;;;;;;17.05;4.03;;;;;;;20.01;44.05;101025.59;5068244;28;20447;-77
2022/04/05 00:51:10;;;;;;;17.88;5.22;;;;;;;19.80;44.49;101026.84;5070927;28;20036;-77
2022/04/05 00:53:36;;;;;;;24.00;5.82;;;;;;;20.12;43.62;101013.53;5070964;28;20029;-77
2022/04/05 00:56:05;;;;;;;17.90;6.22;;;;;;;19.73;44.36;101010.09;5070747;28;20054;-77
2022/04/05 00:58:33;;;;;;;20.20;5.53;;;;;;;19.86;43.95;101011.47;5070846;28;20036;-77
2022/04/05 01:00:58;;;;;;;24.17;6.25;;;;;;;19.53;44.48;101011.25;5070821;28;20029;-77
2022/04/05 01:03:26;;;;;;;17.23;5.80;;;;;;;19.62;44.04;101009.06;5070759;28;20032;-77
2022/04/05 01:05:52;;;;;;;19.08;5.95;;;;;;;19.92;43.43;101000.88;5070719;28;20088;-77
2022/04/05 01:08:21;;;;;;;16.80;5.90;;;;;;;19.83;43.47;101003.91;5070710;28;20483;-77
2022/04/05 01:10:47;;;;;;;24.40;6.60;;;;;;;19.47;44.27;101004.41;5070720;28;20039;-77
2022/04/05 01:13:13;;;;;;;20.83;6.05;;;;;;;19.61;43.81;101001.94;5070519;28;20265;-77
2022/04/05 01:15:39;;;;;;;22.40;6.45;;;;;;;19.72;43.44;101002.91;5070395;28;20080;-77
2022/04/05 01:18:06;;;;;;;19.05;5.85;;;;;;;19.60;43.57;100995.59;5070523;28;20462;-77
2022/04/05 01:20:32;;;;;;;27.88;7.60;;;;;;;19.94;42.81;100993.78;5070419;28;20378;-82
2022/04/05 01:22:58;;;;;;;21.17;5.28;;;;;;;19.51;43.78;100983.91;5070427;28;20077;-77
2022/04/05 01:25:24;;;;;;;26.95;6.65;;;;;;;19.73;43.11;100987.09;5070413;28;20024;-77
2022/04/05 01:27:51;;;;;;;18.67;6.00;;;;;;;20.22;41.86;100987.13;5070308;28;20427;-77
2022/04/05 01:30:17;;;;;;;24.35;6.30;;;;;;;19.89;42.51;100991.34;5069075;28;20394;-77
2022/04/05 01:32:43;;;;;;;25.23;5.57;;;;;;;19.90;42.55;100992.16;5070240;28;20035;-77
2022/04/05 01:35:14;;;;;;;21.70;5.90;;;;;;;19.94;42.29;100974.38;5070130;28;20115;-77
2022/04/05 01:37:40;;;;;;;23.40;5.32;;;;;;;19.81;42.40;100978.53;5070245;28;20363;-77
2022/04/05 01:40:06;;;;;;;24.92;7.10;;;;;;;19.52;42.97;100977.19;5064721;28;20042;-77
2022/04/05 01:42:33;;;;;;;27.08;8.38;;;;;;;19.70;42.56;100965.66;5049609;28;20082;-77
2022/04/05 01:44:59;;;;;;;22.70;5.82;;;;;;;19.91;42.06;100964.03;5048770;28;20086;-77
2022/04/05 01:47:25;;;;;;;23.27;6.22;;;;;;;19.75;42.32;100957.81;5049246;28;20029;-77
2022/04/05 01:49:50;;;;;;;27.08;6.70;;;;;;;19.71;42.34;100965.28;5049921;28;20365;-78
2022/04/05 01:52:17;;;;;;;18.70;6.65;;;;;;;19.58;42.54;100963.88;5050022;28;20117;-77
2022/04/05 01:54:43;;;;;;;21.52;5.72;;;;;;;19.27;43.10;100957.34;5049982;28;20110;-78
2022/04/05 01:57:09;;;;;;;22.25;5.13;;;;;;;19.69;42.05;100964.84;5049918;28;20184;-77
2022/04/05 01:59:37;;;;;;;15.57;5.32;;;;;;;19.32;42.89;100965.31;5048596;28;20387;-77
2022/04/05 02:02:10;;;;;;;15.85;5.03;;;;;;;19.23;42.86;100961.19;5049761;28;20029;-77
2022/04/05 02:04:37;;;;;;;15.25;5.05;;;;;;;19.00;43.54;100950.84;5049881;28;20025;-77
2022/04/05 02:07:13;;;;;;;21.92;5.28;;;;;;;19.56;42.07;100953.09;5049738;28;20043;-78
2022/04/05 02:09:39;;;;;;;15.20;3.95;;;;;;;19.75;41.48;100943.97;5049783;28;20126;-77
2022/04/05 02:12:05;;;;;;;15.98;4.70;;;;;;;19.40;42.36;100947.66;5049741;28;20029;-77
2022/04/05 02:14:31;;;;;;;19.35;5.47;;;;;;;19.22;42.53;100949.31;5049699;27;20029;-81
2022/04/05 02:16:56;;;;;;;22.17;5.13;;;;;;;19.29;42.35;100952.22;5049601;28;20085;-77
2022/04/05 02:19:22;;;;;;;15.13;4.53;;;;;;;19.10;42.45;100953.03;5049535;27;20029;-77
2022/04/05 02:21:49;;;;;;;18.25;4.70;;;;;;;19.40;41.91;100947.66;5049708;28;20025;-77
2022/04/05 02:24:14;;;;;;;18.13;4.78;;;;;;;19.26;42.04;100938.28;5049619;28;20025;-77
2022/04/05 02:26:40;;;;;;;12.43;5.20;;;;;;;18.84;42.92;100934.31;5049476;28;20033;-80
2022/04/05 02:29:06;;;;;;;11.52;3.67;;;;;;;18.40;43.85;100930.97;5049535;28;20025;-77
2022/04/05 02:31:32;;;;;;;22.35;5.32;;;;;;;19.03;42.46;100927.97;5049461;28;20029;-77
2022/04/05 02:33:58;;;;;;;17.40;4.32;;;;;;;19.00;42.73;100934.25;5048187;28;20090;-77
2022/04/05 02:36:24;;;;;;;17.40;4.50;;;;;;;19.20;41.95;100918.41;5049376;28;20475;-83
2022/04/05 02:41:27;;;;;;;18.02;3.65;;;;;;;18.95;42.40;100922.66;5245173;22;20139;-73
2022/04/05 02:43:53;;;;;;;13.32;4.28;;;;;;;19.22;41.64;100923.59;5032176;28;20041;-74
2022/04/05 02:46:20;;;;;;;18.65;5.20;;;;;;;19.02;42.15;100922.78;5032405;28;20091;-73
2022/04/05 02:48:46;;;;;;;19.48;5.13;;;;;;;19.04;42.00;100923.22;5032404;28;20030;-79
2022/04/05 02:51:15;;;;;;;14.55;3.85;;;;;;;19.16;41.70;100920.31;5032444;28;20021;-74
2022/04/05 02:53:42;;;;;;;13.13;3.17;;;;;;;18.82;42.12;100924.78;5032432;28;20033;-74
2022/04/05 02:56:09;;;;;;;11.50;3.53;;;;;;;18.26;43.55;100894.69;5032198;28;20026;-74
2022/04/05 02:58:38;;;;;;;10.32;3.15;;;;;;;18.53;42.93;100904.78;5033796;28;20022;-74
2022/04/05 03:01:04;;;;;;;13.13;3.80;;;;;;;18.51;43.03;100900.75;5036346;28;20124;-73
2022/04/05 03:03:30;;;;;;;12.70;3.95;;;;;;;18.47;43.06;100902.66;5036303;28;20026;-74
2022/04/05 03:05:56;;;;;;;18.65;4.47;;;;;;;18.81;42.02;100896.28;5036171;28;20044;-79
2022/04/05 03:08:22;;;;;;;17.10;4.28;;;;;;;18.62;42.60;100901.00;5036191;28;20029;-73
2022/04/05 03:10:48;;;;;;;11.93;3.65;;;;;;;18.75;41.95;100888.66;5036242;28;20025;-74
2022/04/05 03:13:14;;;;;;;14.63;4.55;;;;;;;18.95;41.67;100875.59;5036096;28;20024;-74
2022/04/05 03:15:40;;;;;;;22.30;4.82;;;;;;;18.62;42.33;100890.72;5035908;28;20021;-73
2022/04/05 03:18:05;;;;;;;11.77;3.88;;;;;;;18.77;41.95;100887.13;5036040;28;20033;-74
2022/04/05 03:20:31;;;;;;;9.60;3.25;;;;;;;18.67;42.15;100881.38;5036033;28;20053;-77
2022/04/05 03:22:59;;;;;;;16.85;4.43;;;;;;;19.03;41.20;100878.13;5036064;28;20092;-74
2022/04/05 03:25:25;;;;;;;13.82;3.97;;;;;;;18.80;41.80;100861.47;5036115;28;20034;-74
2022/04/05 03:27:51;;;;;;;12.43;3.47;;;;;;;18.42;42.70;100866.97;5035870;28;20033;-74
2022/04/05 03:30:19;;;;;;;12.60;5.00;;;;;;;18.51;42.40;100873.09;5035882;28;20392;-73
2022/04/05 03:32:46;;;;;;;15.43;5.10;;;;;;;18.70;41.85;100870.38;5035851;28;20025;-74
2022/04/05 03:35:12;;;;;;;12.43;3.25;;;;;;;18.73;41.73;100889.00;5035656;28;20033;-74
2022/04/05 03:37:37;;;;;;;15.60;4.45;;;;;;;18.92;41.50;100879.09;5035686;28;20376;-73
2022/04/05 03:40:07;;;;;;;10.27;3.92;;;;;;;19.11;41.03;100859.66;5035359;28;20050;-73
2022/04/05 03:42:34;;;;;;;16.50;3.63;;;;;;;19.09;41.14;100867.53;5035606;28;20109;-76
2022/04/05 03:45:00;;;;;;;14.77;3.10;;;;;;;19.12;41.01;100870.41;5035422;28;20079;-76
2022/04/05 03:47:27;;;;;;;14.90;4.55;;;;;;;18.77;41.63;100875.25;5035441;28;20037;-77
2022/04/05 03:49:53;;;;;;;17.77;3.72;;;;;;;18.64;42.05;100871.00;5035433;28;20025;-83
2022/04/05 03:52:19;;;;;;;11.63;3.78;;;;;;;18.74;41.78;100875.97;5035382;28;20511;-76
2022/04/05 03:54:45;;;;;;;10.43;3.72;;;;;;;18.62;41.84;100851.97;5035362;28;20032;-76
2022/04/05 03:57:11;;;;;;;13.85;3.40;;;;;;;18.93;41.39;100864.09;5035305;28;20026;-76
2022/04/05 03:59:36;;;;;;;16.73;4.45;;;;;;;18.74;41.80;100874.03;5035119;28;20104;-76
2022/04/05 04:02:02;;;;;;;21.60;5.10;;;;;;;18.81;41.60;100859.50;5035219;28;20025;-77
2022/04/05 04:04:28;;;;;;;17.67;3.83;;;;;;;18.68;42.00;100850.56;5035149;28;20021;-76
2022/04/05 04:06:53;;;;;;;11.20;3.78;;;;;;;18.56;42.36;100858.97;5035019;28;20025;-76
2022/04/05 04:09:19;;;;;;;15.27;3.97;;;;;;;18.82;41.54;100867.47;5034956;28;20033;-76
2022/04/05 04:11:45;;;;;;;12.07;3.20;;;;;;;18.89;41.31;100852.94;5034493;28;20030;-76
2022/04/05 04:14:12;;;;;;;21.08;4.57;;;;;;;18.63;41.84;100870.19;5034938;28;20100;-76
2022/04/05 04:16:37;;;;;;;21.10;4.18;;;;;;;18.51;42.23;100854.53;5034901;28;20025;-76
2022/04/05 04:19:03;;;;;;;15.52;4.78;;;;;;;18.62;41.98;100843.69;5033530;28;20026;-79
2022/04/05 04:21:29;;;;;;;16.52;4.03;;;;;;;18.45;42.27;100838.59;5034891;28;20037;-76
2022/04/05 04:23:55;;;;;;;16.85;4.60;;;;;;;18.74;41.80;100839.97;5034800;28;20026;-76
2022/04/05 04:26:21;;;;;;;16.95;4.38;;;;;;;18.75;41.66;100845.16;5034661;28;20112;-77
2022/04/05 04:28:51;;;;;;;13.95;3.15;;;;;;;18.97;41.10;100846.38;5034666;28;20025;-77
2022/04/05 04:31:17;;;;;;;12.32;3.55;;;;;;;19.01;40.95;100849.19;5035002;28;20072;-77
2022/04/05 04:33:42;;;;;;;18.75;5.28;;;;;;;19.07;40.80;100839.44;5034709;28;20471;-75
2022/04/05 04:36:08;;;;;;;14.05;3.22;;;;;;;18.90;41.27;100850.97;5034536;28;20069;-76
2022/04/05 04:38:34;;;;;;;17.15;4.18;;;;;;;18.97;41.14;100862.19;5034511;28;20387;-76
2022/04/05 04:40:59;;;;;;;14.60;3.90;;;;;;;18.73;41.56;100858.56;5030196;28;20055;-76
2022/04/05 04:43:27;;;;;;;14.50;4.82;;;;;;;18.91;41.27;100856.16;5033696;28;20072;-77
2022/04/05 04:45:53;;;;;;;17.83;4.47;;;;;;;18.89;41.23;100850.16;5034389;28;20109;-76
2022/04/05 04:48:20;;;;;;;15.70;4.47;;;;;;;19.20;40.57;100843.63;5034263;28;20033;-76
2022/04/05 04:50:50;;;;;;;15.27;4.28;;;;;;;19.27;40.31;100851.25;5034408;28;20113;-76
2022/04/05 04:53:16;;;;;;;14.82;4.15;;;;;;;19.23;40.50;100858.69;5034255;28;20030;-76
2022/04/05 04:55:42;;;;;;;11.40;4.00;;;;;;;19.24;40.28;100852.00;5034017;28;20385;-82
2022/04/05 04:58:08;;;;;;;17.90;5.55;;;;;;;18.99;40.83;100859.84;5034062;28;20376;-77
2022/04/05 05:00:35;;;;;;;14.55;3.70;;;;;;;19.12;40.55;100858.53;5034120;28;20022;-76
2022/04/05 05:03:01;;;;;;;15.50;4.30;;;;;;;19.10;40.63;100849.75;5034015;28;20037;-81
2022/04/05 05:05:26;;;;;;;18.33;4.30;;;;;;;19.18;40.35;100845.94;5033935;28;20387;-76
2022/04/05 05:07:53;;;;;;;16.55;3.20;;;;;;;19.08;40.55;100833.50;5034018;28;20021;-80
2022/04/05 05:10:21;;;;;;;12.73;3.53;;;;;;;18.92;40.75;100832.03;5033886;28;20026;-77
2022/04/05 05:12:47;;;;;;;18.52;4.93;;;;;;;18.80;41.05;100831.00;5033884;28;20539;-76
2022/04/05 05:15:19;;;;;;;16.42;5.32;;;;;;;18.96;40.46;100836.44;5032464;28;20416;-78
2022/04/05 05:17:46;;;;;;;24.70;5.07;;;;;;;18.89;40.74;100843.81;5033847;28;20026;-78
2022/04/05 05:20:14;;;;;;;18.55;4.22;;;;;;;19.08;40.65;100852.91;5032308;28;20021;-75
2022/04/05 05:22:40;;;;;;;25.27;5.10;;;;;;;18.81;40.79;100843.69;5032777;28;20029;-76
2022/04/05 05:25:07;;;;;;;15.02;4.43;;;;;;;18.67;41.00;100843.44;5033702;28;20554;-76
2022/04/05 05:27:33;;;;;;;19.48;3.60;;;;;;;18.90;40.47;100835.16;5032333;28;20436;-75
2022/04/05 05:30:00;;;;;;;14.82;4.03;;;;;;;18.85;40.41;100827.94;5032155;28;20120;-75
2022/04/05 05:32:27;;;;;;;17.13;4.30;;;;;;;18.47;41.10;100828.75;5033483;28;20018;-83
2022/04/05 05:34:53;;;;;;;11.52;3.30;;;;;;;18.52;40.98;100830.44;5033511;28;20021;-76
2022/04/05 05:37:19;;;;;;;20.52;5.63;;;;;;;18.65;40.55;100829.09;5018982;28;20045;-76
2022/04/05 05:39:44;;;;;;;24.38;4.68;;;;;;;18.61;40.57;100833.78;5022763;28;20380;-78
2022/04/05 05:42:10;;;;;;;20.85;4.78;;;;;;;18.83;39.79;100824.75;5032230;28;20088;-79
2022/04/05 05:44:36;;;;;;;19.52;4.43;;;;;;;18.88;39.79;100831.16;5033029;28;20033;-77
2022/04/05 05:47:04;;;;;;;35.80;10.68;;;;;;;18.50;40.57;100828.00;5033242;28;20031;-80
2022/04/05 05:49:30;;;;;;;15.77;4.47;;;;;;;18.62;40.13;100826.28;5015373;28;20025;-77
2022/04/05 05:51:56;;;;;;;14.88;3.63;;;;;;;18.89;39.69;100816.13;5015371;28;20036;-83
2022/04/05 05:54:24;;;;;;;19.05;3.42;;;;;;;18.75;39.97;100817.50;5032978;28;20380;-79
2022/04/05 05:56:50;;;;;;;27.02;8.45;;;;;;;19.01;39.10;100818.75;5032828;28;20111;-76
2022/04/05 05:59:15;;;;;;;17.23;4.05;;;;;;;18.83;39.40;100813.69;5032502;28;20068;-77
2022/04/05 06:01:41;;;;;;;27.95;5.68;;;;;;;19.03;39.17;100810.84;5032527;28;20068;-83
2022/04/05 06:04:06;;;;;;;18.08;5.05;;;;;;;19.16;38.78;100801.22;5032609;28;20447;-75
2022/04/05 06:06:32;;;;;;;35.45;7.32;;;;;;;18.81;39.45;100810.47;5032594;28;20017;-82
2022/04/05 06:08:58;;;;;;;102.93;18.80;;;;;;;18.74;39.63;100806.75;5032682;28;20048;-84
2022/04/05 06:11:25;;;;;;;14.85;3.78;;;;;;;18.69;39.46;100813.41;5027352;28;20100;-83
2022/04/05 06:13:51;;;;;;;13.82;3.17;;;;;;;18.82;39.20;100803.00;5032553;28;20029;-83
2022/04/05 06:16:18;;;;;;;11.02;3.05;;;;;;;18.87;39.13;100812.94;5032330;28;20028;-79
2022/04/05 06:18:47;;;;;;;14.77;3.67;;;;;;;19.03;38.75;100819.16;5029656;28;20032;-83
2022/04/05 06:21:14;;;;;;;18.50;3.50;;;;;;;19.16;38.29;100820.59;5032185;28;20447;-77
2022/04/05 06:23:39;;;;;;;51.75;7.93;;;;;;;19.04;38.58;100818.00;5032128;28;20022;-76
2022/04/05 06:26:05;;;;;;;19.08;4.60;;;;;;;19.04;38.21;100818.00;5032160;28;20120;-76
2022/04/05 06:28:31;;;;;;;28.08;5.03;;;;;;;19.19;38.12;100819.03;5032233;28;20044;-76
2022/04/05 06:30:56;;;;;;;9.38;2.42;;;;;;;18.80;38.50;100819.94;5031685;28;20108;-77
2022/04/05 06:33:22;;;;;;;17.73;4.88;;;;;;;19.07;38.09;100817.28;5032292;28;20044;-76
2022/04/05 06:35:54;;;;;;;23.23;4.78;;;;;;;18.95;38.06;100803.59;5032517;28;20159;-77
2022/04/05 06:38:20;;;;;;;28.85;6.65;;;;;;;19.16;37.80;100828.09;5032538;28;20022;-77
2022/04/05 06:40:46;;;;;;;24.15;5.68;;;;;;;19.28;37.48;100822.41;5032385;28;20048;-75
2022/04/05 06:43:14;;;;;;;20.17;5.32;;;;;;;19.01;38.12;100824.28;5014743;28;20032;-75
2022/04/05 06:45:41;;;;;;;14.77;3.40;;;;;;;19.14;37.70;100825.72;5014567;28;20036;-75
2022/04/05 06:48:06;;;;;;;10.82;3.45;;;;;;;19.30;37.66;100815.31;5032477;28;20102;-78
2022/04/05 06:50:36;;;;;;;36.33;8.48;;;;;;;19.25;37.78;100820.34;5032290;28;20033;-74
2022/04/05 06:53:03;;;;;;;;;;;;;;;18.94;38.26;100824.94;5032819;28;20046;-75
2022/04/05 06:55:29;;;;;;;22.75;4.38;;;;;;;19.56;37.12;100814.53;5032284;28;19924;-75
2022/04/05 06:57:55;;;;;;;36.72;7.00;;;;;;;19.59;37.12;100811.06;5031905;28;20033;-76
2022/04/05 07:00:23;;;;;;;25.02;5.72;;;;;;;19.40;37.55;100811.91;5031897;28;20034;-75
2022/04/05 07:02:49;;;;;;;21.42;6.00;;;;;;;19.36;37.51;100818.56;5028671;28;20057;-81
2022/04/05 07:05:15;;;;;;;15.85;3.13;;;;;;;19.14;38.06;100822.94;5030729;28;20108;-75
2022/04/05 07:07:41;;;;;;;15.10;3.13;;;;;;;19.22;37.85;100818.31;5030750;28;20761;-74
2022/04/05 07:10:09;;;;;;;24.95;6.70;;;;;;;19.39;37.55;100824.16;5030607;28;20029;-80
2022/04/05 07:12:35;;;;;;;44.05;10.60;;;;;;;19.39;37.61;100815.84;5030434;28;20029;-74
2022/04/05 07:15:01;;;;;;;19.55;4.70;;;;;;;19.12;38.17;100825.28;5030753;28;20032;-80
2022/04/05 07:17:27;;;;;;;35.60;6.65;;;;;;;19.38;37.94;100822.56;5012824;28;20029;-75
2022/04/05 07:19:53;;;;;;;10.32;2.63;;;;;;;19.01;38.89;100830.63;5031662;28;20444;-77
2022/04/05 07:22:19;;;;;;;6.40;2.00;;;;;;;18.52;40.72;100825.72;5031969;28;20077;-79
2022/04/05 07:24:46;;;;;;;6.70;2.30;;;;;;;18.96;40.10;100827.34;5031254;28;20029;-78
2022/04/05 07:27:12;;;;;;;6.55;2.67;;;;;;;19.15;40.04;100819.00;5029481;28;20037;-76
2022/04/05 07:29:38;;;;;;;5.90;1.70;;;;;;;18.86;41.31;100834.28;5029097;28;20083;-84
2022/04/05 07:32:04;;;;;;;4.97;1.30;;;;;;;18.91;41.62;100827.66;5030656;28;20068;-75
2022/04/05 07:34:29;;;;;;;4.05;1.48;;;;;;;18.67;42.71;100826.81;5030161;28;20025;-78
2022/04/05 07:36:55;;;;;;;7.45;1.70;;;;;;;18.90;42.39;100813.03;5030287;28;20033;-75
2022/04/05 07:39:22;;;;;;;6.93;2.00;;;;;;;18.91;42.36;100811.06;5030282;28;20029;-75
2022/04/05 07:41:48;;;;;;;5.40;1.30;;;;;;;18.99;42.17;100802.50;5030341;28;20098;-75
2022/04/05 07:44:14;;;;;;;6.97;2.00;;;;;;;19.08;42.06;100799.47;5030963;28;20032;-75
2022/04/05 07:46:39;;;;;;;4.45;1.80;;;;;;;19.15;41.98;100801.59;5034302;28;20029;-75
2022/04/05 07:49:05;;;;;;;5.97;1.65;;;;;;;19.21;42.07;100800.09;5035214;28;20717;-75
2022/04/05 07:51:31;;;;;;;5.05;1.80;;;;;;;19.27;42.00;100798.59;5034982;28;20033;-75
2022/04/05 07:53:56;;;;;;;6.30;1.70;;;;;;;19.50;41.44;100793.06;5034509;28;20029;-80
2022/04/05 07:56:22;;;;;;;4.80;2.60;;;;;;;19.45;41.53;100796.94;5035148;28;20083;-75
2022/04/05 07:58:47;;;;;;;5.13;2.00;;;;;;;19.56;41.60;100786.00;5035122;28;20048;-75
2022/04/05 08:01:13;;;;;;;3.85;1.90;;;;;;;19.37;42.08;100793.25;5034938;28;20029;-76
2022/04/05 08:03:39;;;;;;;6.25;1.83;;;;;;;19.35;42.24;100794.81;5034633;28;20053;-83
2022/04/05 08:06:06;;;;;;;6.45;2.40;;;;;;;19.51;41.68;100783.56;5034920;28;20080;-82
2022/04/05 08:08:31;;;;;;;7.47;2.42;;;;;;;19.22;42.99;100785.09;5034995;28;20041;-82
2022/04/05 08:10:57;;;;;;;6.45;2.20;;;;;;;19.27;42.54;100793.91;5016822;28;20117;-82
2022/04/05 08:13:26;;;;;;;6.93;2.30;;;;;;;19.51;42.04;100791.88;5034551;28;20026;-75
2022/04/05 08:15:52;;;;;;;6.07;2.20;;;;;;;19.10;43.01;100786.06;5034646;28;20025;-75
2022/04/05 08:18:19;;;;;;;5.40;1.63;;;;;;;19.55;42.04;100787.19;5031655;28;20487;-75
2022/04/05 08:20:44;;;;;;;5.15;2.22;;;;;;;19.63;41.85;100778.63;5034956;28;20419;-75
2022/04/05 08:23:10;;;;;;;8.52;1.90;;;;;;;19.44;41.93;100777.91;5033493;28;20029;-83
2022/04/05 08:25:36;;;;;;;7.38;2.55;;;;;;;19.74;41.70;100778.81;5034152;28;20029;-77
2022/04/05 08:28:03;;;;;;;6.70;1.90;;;;;;;19.34;42.41;100774.59;5034917;28;20029;-76
2022/04/05 08:30:28;;;;;;;7.07;2.10;;;;;;;19.52;41.90;100782.41;5034871;28;20040;-75
2022/04/05 08:32:54;;;;;;;8.60;2.10;;;;;;;19.75;41.76;100768.50;5034676;28;20025;-78
2022/04/05 08:35:21;;;;;;;15.15;2.47;;;;;;;19.94;41.30;100765.59;5034701;28;20112;-75
2022/04/05 08:37:48;;;;;;;10.63;2.53;;;;;;;19.94;41.35;100762.81;5034693;28;20029;-75
2022/04/05 08:40:15;;;;;;;6.78;2.22;;;;;;;19.79;41.67;100758.25;5032761;28;20050;-76
2022/04/05 08:42:44;;;;;;;8.60;2.30;;;;;;;19.40;42.09;100758.47;5032889;28;20032;-74
2022/04/05 08:45:12;;;;;;;15.30;3.08;;;;;;;19.79;41.38;100749.94;5031457;28;20022;-74
2022/04/05 08:47:46;;;;;;;10.52;2.47;;;;;;;19.66;41.62;100752.97;5031335;28;20033;-75
2022/04/05 08:50:14;;;;;;;8.77;2.08;;;;;;;19.82;41.14;100749.22;5032576;28;20100;-75
2022/04/05 08:52:40;;;;;;;13.38;2.67;;;;;;;19.94;40.89;100741.44;5032513;28;20036;-75
2022/04/05 08:55:05;;;;;;;12.48;3.00;;;;;;;19.56;41.39;100744.44;5033847;28;20392;-75
2022/04/05 08:57:31;;;;;;;5.40;1.65;;;;;;;19.52;41.32;100738.06;5033625;28;20040;-75
2022/04/05 08:59:57;;;;;;;5.25;1.30;;;;;;;19.57;41.18;100744.13;5033813;28;20043;-75
2022/04/05 09:02:26;;;;;;;18.27;2.92;;;;;;;19.69;41.19;100732.00;5034277;28;20033;-74
2022/04/05 09:04:52;;;;;;;7.22;1.85;;;;;;;19.71;40.89;100737.97;5034111;28;20033;-74
2022/04/05 09:07:23;;;;;;;7.22;2.25;;;;;;;20.10;40.39;100740.44;5034013;28;20038;-75
2022/04/05 09:10:08;;;;;;;44.70;10.48;;;;;;;19.88;40.53;100729.09;5032852;28;20026;-81
2022/04/05 09:12:40;;;;;;;6.82;1.95;;;;;;;20.09;40.31;100742.41;5032603;28;20021;-75
2022/04/05 09:15:24;;;;;;;13.85;3.25;;;;;;;19.91;40.36;100750.53;5033981;28;20025;-76
2022/04/05 09:17:50;;;;;;;19.08;3.88;;;;;;;20.33;39.81;100741.13;5033824;28;20401;-76
2022/04/05 09:20:18;;;;;;;60.55;11.05;;;;;;;20.71;39.13;100741.97;5033745;28;20025;-76
2022/04/05 09:22:44;;;;;;;13.68;2.42;;;;;;;20.50;39.81;100734.22;5032642;28;20030;-76
2022/04/05 09:25:14;;;;;;;23.20;3.42;;;;;;;20.33;39.48;100737.53;5032462;28;20057;-79
2022/04/05 09:27:51;;;;;;;18.40;4.40;;;;;;;20.10;40.01;100729.34;5033723;28;20500;-76
2022/04/05 09:30:23;;;;;;;23.88;4.70;;;;;;;20.28;39.45;100722.03;5033654;28;20029;-76
2022/04/05 09:32:51;;;;;;;12.77;2.88;;;;;;;20.33;39.44;100716.16;5032465;28;20025;-76
2022/04/05 09:35:20;;;;;;;6.97;1.77;;;;;;;20.49;39.15;100718.75;5033596;28;20530;-82
2022/04/05 09:37:46;;;;;;;9.45;2.50;;;;;;;20.32;39.36;100725.66;5033451;28;20036;-75
2022/04/05 09:40:32;;;;;;;19.10;4.57;;;;;;;20.41;38.93;100714.28;5033293;28;20176;-76
2022/04/05 09:43:15;;;;;;;8.73;2.80;;;;;;;20.23;39.52;100725.16;5033593;28;20026;-76
2022/04/05 09:45:46;;;;;;;8.00;2.50;;;;;;;20.62;38.79;100714.50;5033358;28;20029;-76
2022/04/05 09:48:13;;;;;;;6.43;2.35;;;;;;;20.95;38.34;100716.41;5032007;28;20029;-83
2022/04/05 09:50:59;;;;;;;14.32;3.20;;;;;;;20.90;38.50;100705.63;5033340;28;20121;-75
2022/04/05 09:53:30;;;;;;;8.27;2.20;;;;;;;21.04;38.23;100716.06;5033307;28;20447;-82
2022/04/05 09:56:25;;;;;;;11.95;2.25;;;;;;;21.01;37.92;100712.09;5033103;28;20033;-76
2022/04/05 09:59:02;;;;;;;9.10;1.75;;;;;;;20.62;38.44;100705.38;5031440;28;20124;-76
2022/04/05 10:01:30;;;;;;;12.48;2.80;;;;;;;20.04;39.05;100715.03;5033449;28;20402;-76
2022/04/05 10:04:05;;;;;;;5.15;1.63;;;;;;;20.76;38.05;100694.41;5033043;28;20028;-76
2022/04/05 10:06:33;;;;;;;8.02;1.70;;;;;;;20.98;37.78;100698.94;5033061;28;20048;-75
2022/04/05 10:09:02;;;;;;;7.68;2.45;;;;;;;21.14;37.64;100697.88;5032414;28;20087;-75
2022/04/05 10:11:31;;;;;;;8.68;2.38;;;;;;;21.31;37.14;100700.00;5032940;28;20464;-76
2022/04/05 10:13:58;;;;;;;11.90;2.88;;;;;;;21.16;37.49;100704.66;5033083;28;20075;-75
2022/04/05 10:16:28;;;;;;;6.57;1.25;;;;;;;21.09;37.67;100682.38;5032763;28;20025;-76
2022/04/05 10:18:58;;;;;;;;;;;;;;;21.14;37.20;100678.44;5033484;28;20014;-75
2022/04/05 10:21:27;;;;;;;8.25;1.88;;;;;;;20.92;37.43;100692.16;5032695;28;19931;-75
2022/04/05 10:23:55;;;;;;;5.13;1.70;;;;;;;21.16;36.85;100678.84;5032725;28;20365;-75
2022/04/05 10:26:26;;;;;;;6.38;1.55;;;;;;;21.10;37.07;100672.88;5031397;28;20029;-75
2022/04/05 10:28:53;;;;;;;4.65;1.60;;;;;;;20.84;37.46;100673.84;5031193;28;20029;-75
2022/04/05 10:32:01;;;;;;;9.23;2.33;;;;;;;20.83;37.35;100675.03;5032690;28;20021;-75
2022/04/05 10:34:44;;;;;;;17.60;4.18;;;;;;;20.93;37.61;100670.72;5032212;28;20430;-74
2022/04/05 10:37:18;;;;;;;9.77;1.55;;;;;;;21.29;36.74;100667.06;5032500;28;20028;-74
2022/04/05 10:39:55;;;;;;;5.05;1.88;;;;;;;21.51;36.54;100659.63;5031318;28;20025;-75
2022/04/05 10:42:24;;;;;;;5.20;1.73;;;;;;;21.76;36.44;100664.50;5032509;28;20030;-76
2022/04/05 10:45:15;;;;;;;9.20;1.77;;;;;;;20.98;37.23;100653.72;5031198;28;20026;-75
2022/04/05 10:48:11;;;;;;;5.60;1.52;;;;;;;21.96;35.67;100648.31;5031271;28;20112;-76
2022/04/05 10:50:37;;;;;;;1.65;1.08;;;;;;;21.67;35.73;100637.06;5031349;28;20022;-76
2022/04/05 10:53:36;;;;;;;7.05;1.55;;;;;;;21.36;36.50;100640.50;5032554;28;20036;-83
2022/04/05 10:56:09;;;;;;;14.45;2.47;;;;;;;22.54;34.63;100647.28;5025916;28;20030;-75
2022/04/05 10:59:05;;;;;;;10.05;2.78;;;;;;;21.94;35.66;100634.78;5031159;28;20591;-76
2022/04/05 11:01:43;;;;;;;2.40;1.05;;;;;;;21.69;35.65;100633.88;5032354;28;20060;-75
2022/04/05 11:04:18;;;;;;;4.20;1.25;;;;;;;22.01;34.86;100643.16;5032399;28;20037;-76
2022/04/05 11:06:59;;;;;;;4.70;1.55;;;;;;;21.84;35.29;100646.69;5031173;28;20025;-76
2022/04/05 11:09:40;;;;;;;11.20;2.30;;;;;;;21.60;35.17;100629.50;5032209;28;20021;-75
2022/04/05 11:12:30;;;;;;;5.07;1.20;;;;;;;21.91;35.00;100618.06;5031254;28;20025;-76
2022/04/05 11:15:04;;;;;;;42.80;10.10;;;;;;;21.47;35.35;100617.13;5032120;28;20041;-76
2022/04/05 11:17:31;;;;;;;6.10;1.60;;;;;;;21.85;34.88;100626.81;5032188;28;20033;-76
2022/04/05 11:19:59;;;;;;;9.73;1.83;;;;;;;22.14;34.46;100616.59;5032729;28;20028;-77
2022/04/05 11:22:28;;;;;;;5.35;1.38;;;;;;;21.45;35.24;100625.06;5034781;28;20399;-75
2022/04/05 11:24:55;;;;;;;6.78;1.73;;;;;;;22.26;34.50;100612.63;5036143;28;20415;-81
2022/04/05 11:27:26;;;;;;;7.05;2.08;;;;;;;22.10;34.71;100621.34;5035703;28;20104;-75